sensor_id;sensor_type;location;lat;lon;timestamp;P1;durP1;ratioP1;P2;durP2;ratioP2
20431;SDS011;10375;49.136;10.366;2024-01-16T00:01:09;5.97;;;4.40;;
20431;SDS011;10375;49.136;10.366;2024-01-16T00:03:37;8.33;;;3.93;;
20431;SDS011;10375;49.136;10.366;2024-01-16T00:06:05;10.33;;;3.93;;
20431;SDS011;10375;49.136;10.366;2024-01-16T00:08:33;8.83;;;4.13;;
20431;SDS011;10375;49.136;10.366;2024-01-16T00:11:03;7.00;;;3.30;;
20431;SDS011;10375;49.136;10.366;2024-01-16T00:13:31;9.40;;;3.83;;
20431;SDS011;10375;49.136;10.366;2024-01-16T00:16:01;5.67;;;3.87;;
20431;SDS011;10375;49.136;10.366;2024-01-16T00:18:30;4.60;;;3.70;;
20431;SDS011;10375;49.136;10.366;2024-01-16T00:20:57;8.30;;;4.03;;
20431;SDS011;10375;49.136;10.366;2024-01-16T00:23:28;8.87;;;3.77;;
20431;SDS011;10375;49.136;10.366;2024-01-16T00:25:58;5.27;;;3.57;;
20431;SDS011;10375;49.136;10.366;2024-01-16T00:28:25;4.53;;;3.77;;
20431;SDS011;10375;49.136;10.366;2024-01-16T00:30:52;4.63;;;3.60;;
20431;SDS011;10375;49.136;10.366;2024-01-16T00:33:19;5.30;;;3.53;;
20431;SDS011;10375;49.136;10.366;2024-01-16T00:35:47;9.53;;;4.30;;
20431;SDS011;10375;49.136;10.366;2024-01-16T00:38:14;7.77;;;4.53;;
20431;SDS011;10375;49.136;10.366;2024-01-16T00:40:41;7.87;;;4.23;;
20431;SDS011;10375;49.136;10.366;2024-01-16T00:43:08;12.70;;;4.50;;
20431;SDS011;10375;49.136;10.366;2024-01-16T00:45:35;11.17;;;3.60;;
20431;SDS011;10375;49.136;10.366;2024-01-16T00:48:03;8.50;;;4.73;;
20431;SDS011;10375;49.136;10.366;2024-01-16T00:50:32;7.17;;;4.17;;
20431;SDS011;10375;49.136;10.366;2024-01-16T00:52:59;13.17;;;4.47;;
20431;SDS011;10375;49.136;10.366;2024-01-16T00:55:26;5.90;;;4.37;;
20431;SDS011;10375;49.136;10.366;2024-01-16T00:57:53;4.80;;;3.70;;
20431;SDS011;10375;49.136;10.366;2024-01-16T01:00:20;6.53;;;3.63;;
20431;SDS011;10375;49.136;10.366;2024-01-16T01:02:48;9.60;;;4.33;;
20431;SDS011;10375;49.136;10.366;2024-01-16T01:05:15;9.53;;;4.20;;
20431;SDS011;10375;49.136;10.366;2024-01-16T01:07:42;12.30;;;4.43;;
20431;SDS011;10375;49.136;10.366;2024-01-16T01:10:09;5.70;;;4.43;;
20431;SDS011;10375;49.136;10.366;2024-01-16T01:12:42;7.17;;;3.90;;
20431;SDS011;10375;49.136;10.366;2024-01-16T01:15:31;5.20;;;3.97;;
20431;SDS011;10375;49.136;10.366;2024-01-16T01:18:17;5.10;;;3.63;;
20431;SDS011;10375;49.136;10.366;2024-01-16T01:21:02;4.67;;;3.43;;
20431;SDS011;10375;49.136;10.366;2024-01-16T01:23:29;7.23;;;4.60;;
20431;SDS011;10375;49.136;10.366;2024-01-16T01:25:57;8.27;;;4.57;;
20431;SDS011;10375;49.136;10.366;2024-01-16T01:28:24;7.03;;;4.30;;
20431;SDS011;10375;49.136;10.366;2024-01-16T01:30:51;5.20;;;3.77;;
20431;SDS011;10375;49.136;10.366;2024-01-16T01:33:18;8.80;;;4.23;;
20431;SDS011;10375;49.136;10.366;2024-01-16T01:35:46;6.00;;;3.30;;
20431;SDS011;10375;49.136;10.366;2024-01-16T01:38:13;12.23;;;4.27;;
20431;SDS011;10375;49.136;10.366;2024-01-16T01:40:40;6.43;;;4.20;;
20431;SDS011;10375;49.136;10.366;2024-01-16T01:43:19;7.13;;;3.90;;
20431;SDS011;10375;49.136;10.366;2024-01-16T01:45:51;6.67;;;4.43;;
20431;SDS011;10375;49.136;10.366;2024-01-16T01:48:29;13.77;;;5.27;;
20431;SDS011;10375;49.136;10.366;2024-01-16T01:50:59;15.93;;;4.50;;
20431;SDS011;10375;49.136;10.366;2024-01-16T01:53:26;8.00;;;4.00;;
20431;SDS011;10375;49.136;10.366;2024-01-16T01:55:55;5.70;;;3.83;;
20431;SDS011;10375;49.136;10.366;2024-01-16T01:58:22;9.60;;;4.87;;
20431;SDS011;10375;49.136;10.366;2024-01-16T02:00:50;9.07;;;4.40;;
20431;SDS011;10375;49.136;10.366;2024-01-16T02:03:17;6.83;;;3.83;;
20431;SDS011;10375;49.136;10.366;2024-01-16T02:05:45;5.80;;;4.47;;
20431;SDS011;10375;49.136;10.366;2024-01-16T02:08:13;9.97;;;3.73;;
20431;SDS011;10375;49.136;10.366;2024-01-16T02:10:40;11.17;;;4.90;;
20431;SDS011;10375;49.136;10.366;2024-01-16T02:13:12;5.97;;;4.50;;
20431;SDS011;10375;49.136;10.366;2024-01-16T02:15:39;7.70;;;4.67;;
20431;SDS011;10375;49.136;10.366;2024-01-16T02:18:07;7.30;;;4.40;;
20431;SDS011;10375;49.136;10.366;2024-01-16T02:20:35;7.17;;;4.60;;
20431;SDS011;10375;49.136;10.366;2024-01-16T02:23:03;11.50;;;4.80;;
20431;SDS011;10375;49.136;10.366;2024-01-16T02:25:30;8.03;;;4.63;;
20431;SDS011;10375;49.136;10.366;2024-01-16T02:27:59;6.17;;;4.10;;
20431;SDS011;10375;49.136;10.366;2024-01-16T02:30:26;18.53;;;6.47;;
20431;SDS011;10375;49.136;10.366;2024-01-16T02:32:54;4.20;;;3.67;;
20431;SDS011;10375;49.136;10.366;2024-01-16T02:35:21;10.77;;;4.87;;
20431;SDS011;10375;49.136;10.366;2024-01-16T02:37:48;4.87;;;3.90;;
20431;SDS011;10375;49.136;10.366;2024-01-16T02:40:15;13.90;;;4.07;;
20431;SDS011;10375;49.136;10.366;2024-01-16T02:42:42;6.13;;;4.20;;
20431;SDS011;10375;49.136;10.366;2024-01-16T02:45:10;5.20;;;3.80;;
20431;SDS011;10375;49.136;10.366;2024-01-16T02:47:37;6.83;;;4.67;;
20431;SDS011;10375;49.136;10.366;2024-01-16T02:50:04;6.73;;;4.40;;
20431;SDS011;10375;49.136;10.366;2024-01-16T02:52:32;7.60;;;4.50;;
20431;SDS011;10375;49.136;10.366;2024-01-16T02:54:59;6.30;;;4.03;;
20431;SDS011;10375;49.136;10.366;2024-01-16T02:57:26;7.87;;;3.63;;
20431;SDS011;10375;49.136;10.366;2024-01-16T02:59:53;11.30;;;4.23;;
20431;SDS011;10375;49.136;10.366;2024-01-16T03:02:21;9.70;;;4.37;;
20431;SDS011;10375;49.136;10.366;2024-01-16T03:04:49;5.43;;;4.37;;
20431;SDS011;10375;49.136;10.366;2024-01-16T03:07:16;11.33;;;5.17;;
20431;SDS011;10375;49.136;10.366;2024-01-16T03:09:43;9.17;;;5.30;;
20431;SDS011;10375;49.136;10.366;2024-01-16T03:12:10;12.70;;;4.60;;
20431;SDS011;10375;49.136;10.366;2024-01-16T03:14:38;5.37;;;4.33;;
20431;SDS011;10375;49.136;10.366;2024-01-16T03:17:05;15.83;;;5.63;;
20431;SDS011;10375;49.136;10.366;2024-01-16T03:19:33;40.37;;;15.67;;
20431;SDS011;10375;49.136;10.366;2024-01-16T03:22:00;11.63;;;7.87;;
20431;SDS011;10375;49.136;10.366;2024-01-16T03:24:27;8.50;;;4.67;;
20431;SDS011;10375;49.136;10.366;2024-01-16T03:26:55;8.83;;;4.40;;
20431;SDS011;10375;49.136;10.366;2024-01-16T03:29:22;5.87;;;4.20;;
20431;SDS011;10375;49.136;10.366;2024-01-16T03:31:49;7.60;;;4.63;;
20431;SDS011;10375;49.136;10.366;2024-01-16T03:34:16;10.27;;;3.87;;
20431;SDS011;10375;49.136;10.366;2024-01-16T03:36:43;8.17;;;3.77;;
20431;SDS011;10375;49.136;10.366;2024-01-16T03:39:10;8.00;;;4.50;;
20431;SDS011;10375;49.136;10.366;2024-01-16T03:41:38;17.40;;;5.03;;
20431;SDS011;10375;49.136;10.366;2024-01-16T03:44:05;5.40;;;3.50;;
20431;SDS011;10375;49.136;10.366;2024-01-16T03:46:32;4.43;;;3.60;;
20431;SDS011;10375;49.136;10.366;2024-01-16T03:49:00;7.00;;;4.33;;
20431;SDS011;10375;49.136;10.366;2024-01-16T03:51:28;10.10;;;4.40;;
20431;SDS011;10375;49.136;10.366;2024-01-16T03:53:55;11.00;;;3.83;;
20431;SDS011;10375;49.136;10.366;2024-01-16T03:56:22;13.10;;;4.13;;
20431;SDS011;10375;49.136;10.366;2024-01-16T03:58:49;10.13;;;4.63;;
20431;SDS011;10375;49.136;10.366;2024-01-16T04:01:17;7.53;;;4.70;;
20431;SDS011;10375;49.136;10.366;2024-01-16T04:03:44;8.03;;;4.83;;
20431;SDS011;10375;49.136;10.366;2024-01-16T04:06:17;5.47;;;3.87;;
20431;SDS011;10375;49.136;10.366;2024-01-16T04:08:45;15.27;;;4.80;;
20431;SDS011;10375;49.136;10.366;2024-01-16T04:11:13;12.60;;;5.10;;
20431;SDS011;10375;49.136;10.366;2024-01-16T04:13:40;6.83;;;3.87;;
20431;SDS011;10375;49.136;10.366;2024-01-16T04:16:08;4.10;;;3.70;;
20431;SDS011;10375;49.136;10.366;2024-01-16T04:18:41;6.80;;;4.37;;
20431;SDS011;10375;49.136;10.366;2024-01-16T04:21:10;6.00;;;4.90;;
20431;SDS011;10375;49.136;10.366;2024-01-16T04:23:37;5.40;;;3.97;;
20431;SDS011;10375;49.136;10.366;2024-01-16T04:26:04;8.13;;;4.30;;
20431;SDS011;10375;49.136;10.366;2024-01-16T04:28:31;7.13;;;4.50;;
20431;SDS011;10375;49.136;10.366;2024-01-16T04:30:59;7.87;;;4.30;;
20431;SDS011;10375;49.136;10.366;2024-01-16T04:33:28;9.13;;;5.30;;
20431;SDS011;10375;49.136;10.366;2024-01-16T04:35:55;7.87;;;4.37;;
20431;SDS011;10375;49.136;10.366;2024-01-16T04:38:23;6.47;;;4.20;;
20431;SDS011;10375;49.136;10.366;2024-01-16T04:40:50;7.03;;;4.97;;
20431;SDS011;10375;49.136;10.366;2024-01-16T04:43:17;9.73;;;4.43;;
20431;SDS011;10375;49.136;10.366;2024-01-16T04:45:44;7.10;;;3.83;;
20431;SDS011;10375;49.136;10.366;2024-01-16T04:48:12;13.70;;;5.47;;
20431;SDS011;10375;49.136;10.366;2024-01-16T04:50:40;9.23;;;5.03;;
20431;SDS011;10375;49.136;10.366;2024-01-16T04:53:09;10.30;;;4.43;;
20431;SDS011;10375;49.136;10.366;2024-01-16T04:55:36;5.87;;;3.83;;
20431;SDS011;10375;49.136;10.366;2024-01-16T04:58:04;7.87;;;4.17;;
20431;SDS011;10375;49.136;10.366;2024-01-16T05:00:32;7.57;;;4.70;;
20431;SDS011;10375;49.136;10.366;2024-01-16T05:03:00;7.13;;;4.87;;
20431;SDS011;10375;49.136;10.366;2024-01-16T05:05:31;6.00;;;4.80;;
20431;SDS011;10375;49.136;10.366;2024-01-16T05:08:00;6.30;;;4.73;;
20431;SDS011;10375;49.136;10.366;2024-01-16T05:10:29;8.83;;;4.90;;
20431;SDS011;10375;49.136;10.366;2024-01-16T05:12:57;7.80;;;4.57;;
20431;SDS011;10375;49.136;10.366;2024-01-16T05:15:24;9.63;;;5.03;;
20431;SDS011;10375;49.136;10.366;2024-01-16T05:17:51;13.33;;;4.70;;
20431;SDS011;10375;49.136;10.366;2024-01-16T05:20:20;8.90;;;4.77;;
20431;SDS011;10375;49.136;10.366;2024-01-16T05:22:48;6.40;;;3.90;;
20431;SDS011;10375;49.136;10.366;2024-01-16T05:25:15;10.63;;;5.03;;
20431;SDS011;10375;49.136;10.366;2024-01-16T05:27:44;8.53;;;5.17;;
20431;SDS011;10375;49.136;10.366;2024-01-16T05:30:11;8.87;;;5.03;;
20431;SDS011;10375;49.136;10.366;2024-01-16T05:32:38;8.93;;;4.60;;
20431;SDS011;10375;49.136;10.366;2024-01-16T05:35:08;8.83;;;5.43;;
20431;SDS011;10375;49.136;10.366;2024-01-16T05:37:36;6.70;;;4.40;;
20431;SDS011;10375;49.136;10.366;2024-01-16T05:40:03;10.67;;;5.00;;
20431;SDS011;10375;49.136;10.366;2024-01-16T05:42:32;13.27;;;4.47;;
20431;SDS011;10375;49.136;10.366;2024-01-16T05:44:59;5.40;;;4.27;;
20431;SDS011;10375;49.136;10.366;2024-01-16T05:47:26;10.23;;;4.30;;
20431;SDS011;10375;49.136;10.366;2024-01-16T05:49:54;7.00;;;4.93;;
20431;SDS011;10375;49.136;10.366;2024-01-16T05:52:22;7.97;;;4.03;;
20431;SDS011;10375;49.136;10.366;2024-01-16T05:54:49;10.47;;;4.90;;
20431;SDS011;10375;49.136;10.366;2024-01-16T05:57:17;6.53;;;4.73;;
20431;SDS011;10375;49.136;10.366;2024-01-16T05:59:45;19.37;;;6.67;;
20431;SDS011;10375;49.136;10.366;2024-01-16T06:02:12;8.10;;;5.10;;
20431;SDS011;10375;49.136;10.366;2024-01-16T06:04:39;7.13;;;4.47;;
20431;SDS011;10375;49.136;10.366;2024-01-16T06:07:06;7.47;;;5.03;;
20431;SDS011;10375;49.136;10.366;2024-01-16T06:09:38;8.63;;;4.77;;
20431;SDS011;10375;49.136;10.366;2024-01-16T06:12:06;11.33;;;5.17;;
20431;SDS011;10375;49.136;10.366;2024-01-16T06:14:34;10.83;;;4.97;;
20431;SDS011;10375;49.136;10.366;2024-01-16T06:17:01;9.50;;;5.23;;
20431;SDS011;10375;49.136;10.366;2024-01-16T06:19:29;12.23;;;4.50;;
20431;SDS011;10375;49.136;10.366;2024-01-16T06:21:58;9.47;;;4.20;;
20431;SDS011;10375;49.136;10.366;2024-01-16T06:24:26;13.63;;;4.80;;
20431;SDS011;10375;49.136;10.366;2024-01-16T06:26:53;20.20;;;6.67;;
20431;SDS011;10375;49.136;10.366;2024-01-16T06:29:20;11.33;;;3.87;;
20431;SDS011;10375;49.136;10.366;2024-01-16T06:32:00;11.20;;;4.73;;
20431;SDS011;10375;49.136;10.366;2024-01-16T06:34:27;22.43;;;5.33;;
20431;SDS011;10375;49.136;10.366;2024-01-16T06:36:55;8.20;;;4.93;;
20431;SDS011;10375;49.136;10.366;2024-01-16T06:39:22;8.00;;;4.50;;
20431;SDS011;10375;49.136;10.366;2024-01-16T06:41:50;50.37;;;8.97;;
20431;SDS011;10375;49.136;10.366;2024-01-16T06:44:18;25.17;;;7.73;;
20431;SDS011;10375;49.136;10.366;2024-01-16T06:46:45;20.10;;;7.13;;
20431;SDS011;10375;49.136;10.366;2024-01-16T06:49:13;7.93;;;5.03;;
20431;SDS011;10375;49.136;10.366;2024-01-16T06:51:40;10.30;;;5.00;;
20431;SDS011;10375;49.136;10.366;2024-01-16T06:54:08;6.43;;;3.77;;
20431;SDS011;10375;49.136;10.366;2024-01-16T06:56:35;9.87;;;5.30;;
20431;SDS011;10375;49.136;10.366;2024-01-16T06:59:03;17.70;;;5.20;;
20431;SDS011;10375;49.136;10.366;2024-01-16T07:01:32;7.53;;;4.93;;
20431;SDS011;10375;49.136;10.366;2024-01-16T07:03:59;42.50;;;18.00;;
20431;SDS011;10375;49.136;10.366;2024-01-16T07:06:26;8.30;;;4.87;;
20431;SDS011;10375;49.136;10.366;2024-01-16T07:08:53;26.10;;;9.47;;
20431;SDS011;10375;49.136;10.366;2024-01-16T07:11:20;36.80;;;8.53;;
20431;SDS011;10375;49.136;10.366;2024-01-16T07:13:50;64.50;;;15.43;;
20431;SDS011;10375;49.136;10.366;2024-01-16T07:16:17;18.50;;;9.03;;
20431;SDS011;10375;49.136;10.366;2024-01-16T07:18:45;10.40;;;5.73;;
20431;SDS011;10375;49.136;10.366;2024-01-16T07:21:20;16.00;;;6.53;;
20431;SDS011;10375;49.136;10.366;2024-01-16T07:23:49;8.17;;;4.93;;
20431;SDS011;10375;49.136;10.366;2024-01-16T07:26:16;12.87;;;4.30;;
20431;SDS011;10375;49.136;10.366;2024-01-16T07:28:44;19.43;;;5.37;;
20431;SDS011;10375;49.136;10.366;2024-01-16T07:31:15;6.10;;;3.77;;
20431;SDS011;10375;49.136;10.366;2024-01-16T07:33:43;18.33;;;4.50;;
20431;SDS011;10375;49.136;10.366;2024-01-16T07:36:11;11.10;;;5.83;;
20431;SDS011;10375;49.136;10.366;2024-01-16T07:38:38;23.03;;;8.93;;
20431;SDS011;10375;49.136;10.366;2024-01-16T07:41:06;13.30;;;6.33;;
20431;SDS011;10375;49.136;10.366;2024-01-16T07:43:34;8.03;;;4.87;;
20431;SDS011;10375;49.136;10.366;2024-01-16T07:46:04;12.37;;;6.40;;
20431;SDS011;10375;49.136;10.366;2024-01-16T07:48:31;9.30;;;5.70;;
20431;SDS011;10375;49.136;10.366;2024-01-16T07:50:59;8.00;;;5.07;;
20431;SDS011;10375;49.136;10.366;2024-01-16T07:53:26;11.80;;;6.30;;
20431;SDS011;10375;49.136;10.366;2024-01-16T07:55:56;15.63;;;7.80;;
20431;SDS011;10375;49.136;10.366;2024-01-16T07:58:25;19.03;;;9.47;;
20431;SDS011;10375;49.136;10.366;2024-01-16T08:00:54;17.00;;;8.07;;
20431;SDS011;10375;49.136;10.366;2024-01-16T08:03:24;20.80;;;9.73;;
20431;SDS011;10375;49.136;10.366;2024-01-16T08:05:52;18.00;;;6.87;;
20431;SDS011;10375;49.136;10.366;2024-01-16T08:08:20;15.73;;;8.57;;
20431;SDS011;10375;49.136;10.366;2024-01-16T08:10:49;13.17;;;6.87;;
20431;SDS011;10375;49.136;10.366;2024-01-16T08:13:20;13.60;;;7.50;;
20431;SDS011;10375;49.136;10.366;2024-01-16T08:15:48;18.10;;;8.33;;
20431;SDS011;10375;49.136;10.366;2024-01-16T08:18:16;22.63;;;9.50;;
20431;SDS011;10375;49.136;10.366;2024-01-16T08:20:44;25.77;;;10.67;;
20431;SDS011;10375;49.136;10.366;2024-01-16T08:23:12;23.27;;;10.23;;
20431;SDS011;10375;49.136;10.366;2024-01-16T08:25:40;14.87;;;8.60;;
20431;SDS011;10375;49.136;10.366;2024-01-16T08:28:13;42.40;;;16.27;;
20431;SDS011;10375;49.136;10.366;2024-01-16T08:30:41;13.27;;;6.77;;
20431;SDS011;10375;49.136;10.366;2024-01-16T08:33:10;30.60;;;10.37;;
20431;SDS011;10375;49.136;10.366;2024-01-16T08:35:39;33.23;;;11.57;;
20431;SDS011;10375;49.136;10.366;2024-01-16T08:38:07;17.50;;;7.20;;
20431;SDS011;10375;49.136;10.366;2024-01-16T08:40:35;19.70;;;8.93;;
20431;SDS011;10375;49.136;10.366;2024-01-16T08:43:04;50.30;;;15.30;;
20431;SDS011;10375;49.136;10.366;2024-01-16T08:45:31;24.90;;;9.13;;
20431;SDS011;10375;49.136;10.366;2024-01-16T08:47:59;19.37;;;9.60;;
20431;SDS011;10375;49.136;10.366;2024-01-16T08:50:28;20.70;;;9.13;;
20431;SDS011;10375;49.136;10.366;2024-01-16T08:52:56;34.73;;;13.57;;
20431;SDS011;10375;49.136;10.366;2024-01-16T08:55:23;32.93;;;10.17;;
20431;SDS011;10375;49.136;10.366;2024-01-16T08:57:50;21.03;;;8.47;;
20431;SDS011;10375;49.136;10.366;2024-01-16T09:00:18;25.17;;;10.10;;
20431;SDS011;10375;49.136;10.366;2024-01-16T09:02:46;46.00;;;11.43;;
20431;SDS011;10375;49.136;10.366;2024-01-16T09:05:15;20.57;;;8.00;;
20431;SDS011;10375;49.136;10.366;2024-01-16T09:07:43;15.80;;;8.47;;
20431;SDS011;10375;49.136;10.366;2024-01-16T09:10:12;22.30;;;8.37;;
20431;SDS011;10375;49.136;10.366;2024-01-16T09:12:43;58.83;;;10.07;;
20431;SDS011;10375;49.136;10.366;2024-01-16T09:15:11;37.27;;;15.53;;
20431;SDS011;10375;49.136;10.366;2024-01-16T09:17:39;19.87;;;8.57;;
20431;SDS011;10375;49.136;10.366;2024-01-16T09:20:07;8.27;;;4.70;;
20431;SDS011;10375;49.136;10.366;2024-01-16T09:22:35;10.17;;;4.40;;
20431;SDS011;10375;49.136;10.366;2024-01-16T09:25:02;17.17;;;4.90;;
20431;SDS011;10375;49.136;10.366;2024-01-16T09:27:30;6.30;;;3.53;;
20431;SDS011;10375;49.136;10.366;2024-01-16T09:29:58;8.50;;;4.43;;
20431;SDS011;10375;49.136;10.366;2024-01-16T09:32:27;5.50;;;3.67;;
20431;SDS011;10375;49.136;10.366;2024-01-16T09:34:57;6.23;;;4.87;;
20431;SDS011;10375;49.136;10.366;2024-01-16T09:37:25;5.87;;;3.37;;
20431;SDS011;10375;49.136;10.366;2024-01-16T09:39:52;5.10;;;3.23;;
20431;SDS011;10375;49.136;10.366;2024-01-16T09:42:20;12.10;;;4.03;;
20431;SDS011;10375;49.136;10.366;2024-01-16T09:44:48;8.17;;;4.13;;
20431;SDS011;10375;49.136;10.366;2024-01-16T09:47:16;13.57;;;6.43;;
20431;SDS011;10375;49.136;10.366;2024-01-16T09:49:45;12.73;;;4.77;;
20431;SDS011;10375;49.136;10.366;2024-01-16T09:52:16;5.07;;;2.97;;
20431;SDS011;10375;49.136;10.366;2024-01-16T09:54:43;14.87;;;4.23;;
20431;SDS011;10375;49.136;10.366;2024-01-16T09:57:11;11.60;;;4.07;;
20431;SDS011;10375;49.136;10.366;2024-01-16T09:59:40;5.17;;;3.23;;
20431;SDS011;10375;49.136;10.366;2024-01-16T10:02:11;50.60;;;6.63;;
20431;SDS011;10375;49.136;10.366;2024-01-16T10:04:44;7.70;;;3.57;;
20431;SDS011;10375;49.136;10.366;2024-01-16T10:07:12;5.40;;;3.23;;
20431;SDS011;10375;49.136;10.366;2024-01-16T10:09:40;23.57;;;4.80;;
20431;SDS011;10375;49.136;10.366;2024-01-16T10:12:09;3.37;;;2.87;;
20431;SDS011;10375;49.136;10.366;2024-01-16T10:14:38;4.70;;;2.80;;
20431;SDS011;10375;49.136;10.366;2024-01-16T10:17:05;7.23;;;3.30;;
20431;SDS011;10375;49.136;10.366;2024-01-16T10:19:37;9.57;;;4.83;;
20431;SDS011;10375;49.136;10.366;2024-01-16T10:22:19;9.70;;;3.47;;
20431;SDS011;10375;49.136;10.366;2024-01-16T10:25:10;7.93;;;3.43;;
20431;SDS011;10375;49.136;10.366;2024-01-16T10:27:43;10.27;;;3.27;;
20431;SDS011;10375;49.136;10.366;2024-01-16T10:30:11;12.57;;;3.70;;
20431;SDS011;10375;49.136;10.366;2024-01-16T10:32:40;3.37;;;2.87;;
20431;SDS011;10375;49.136;10.366;2024-01-16T10:37:52;4.63;;;3.07;;
20431;SDS011;10375;49.136;10.366;2024-01-16T10:40:23;3.20;;;2.67;;
20431;SDS011;10375;49.136;10.366;2024-01-16T10:42:58;8.50;;;2.33;;
20431;SDS011;10375;49.136;10.366;2024-01-16T10:45:27;5.60;;;3.33;;
20431;SDS011;10375;49.136;10.366;2024-01-16T10:48:00;3.80;;;2.63;;
20431;SDS011;10375;49.136;10.366;2024-01-16T10:50:32;3.27;;;2.63;;
20431;SDS011;10375;49.136;10.366;2024-01-16T10:53:03;6.63;;;3.00;;
20431;SDS011;10375;49.136;10.366;2024-01-16T10:55:33;10.47;;;2.90;;
20431;SDS011;10375;49.136;10.366;2024-01-16T10:58:19;5.60;;;3.07;;
20431;SDS011;10375;49.136;10.366;2024-01-16T11:00:50;4.57;;;2.73;;
20431;SDS011;10375;49.136;10.366;2024-01-16T11:03:24;3.50;;;2.53;;
20431;SDS011;10375;49.136;10.366;2024-01-16T11:05:57;6.93;;;2.70;;
20431;SDS011;10375;49.136;10.366;2024-01-16T11:11:05;3.70;;;2.50;;
20431;SDS011;10375;49.136;10.366;2024-01-16T11:13:36;4.10;;;2.90;;
20431;SDS011;10375;49.136;10.366;2024-01-16T11:16:03;3.13;;;2.73;;
20431;SDS011;10375;49.136;10.366;2024-01-16T11:18:31;3.10;;;2.50;;
20431;SDS011;10375;49.136;10.366;2024-01-16T11:21:02;4.07;;;2.87;;
20431;SDS011;10375;49.136;10.366;2024-01-16T11:23:37;2.70;;;2.50;;
20431;SDS011;10375;49.136;10.366;2024-01-16T11:29:00;14.97;;;2.97;;
20431;SDS011;10375;49.136;10.366;2024-01-16T11:31:55;2.80;;;2.50;;
20431;SDS011;10375;49.136;10.366;2024-01-16T11:37:26;2.70;;;2.23;;
20431;SDS011;10375;49.136;10.366;2024-01-16T11:43:47;3.90;;;2.50;;
20431;SDS011;10375;49.136;10.366;2024-01-16T11:46:08;10.73;;;3.03;;
20431;SDS011;10375;49.136;10.366;2024-01-16T11:48:36;3.07;;;2.23;;
20431;SDS011;10375;49.136;10.366;2024-01-16T11:51:24;6.60;;;2.73;;
20431;SDS011;10375;49.136;10.366;2024-01-16T11:53:54;5.27;;;2.80;;
20431;SDS011;10375;49.136;10.366;2024-01-16T11:56:26;5.73;;;2.43;;
20431;SDS011;10375;49.136;10.366;2024-01-16T12:02:26;11.33;;;3.07;;
20431;SDS011;10375;49.136;10.366;2024-01-16T12:05:05;4.50;;;2.60;;
20431;SDS011;10375;49.136;10.366;2024-01-16T12:07:52;8.33;;;2.67;;
20431;SDS011;10375;49.136;10.366;2024-01-16T12:10:21;3.27;;;2.43;;
20431;SDS011;10375;49.136;10.366;2024-01-16T12:12:50;3.37;;;2.30;;
20431;SDS011;10375;49.136;10.366;2024-01-16T12:15:21;7.80;;;2.80;;
20431;SDS011;10375;49.136;10.366;2024-01-16T12:20:25;3.23;;;2.07;;
20431;SDS011;10375;49.136;10.366;2024-01-16T12:22:55;3.43;;;2.43;;
20431;SDS011;10375;49.136;10.366;2024-01-16T12:25:33;4.30;;;2.30;;
20431;SDS011;10375;49.136;10.366;2024-01-16T12:28:21;3.93;;;2.23;;
20431;SDS011;10375;49.136;10.366;2024-01-16T12:30:58;9.10;;;4.27;;
20431;SDS011;10375;49.136;10.366;2024-01-16T12:33:27;7.03;;;4.70;;
20431;SDS011;10375;49.136;10.366;2024-01-16T12:36:02;6.23;;;3.80;;
20431;SDS011;10375;49.136;10.366;2024-01-16T12:38:31;6.83;;;2.90;;
20431;SDS011;10375;49.136;10.366;2024-01-16T12:40:59;5.00;;;2.33;;
20431;SDS011;10375;49.136;10.366;2024-01-16T12:43:29;4.50;;;2.53;;
20431;SDS011;10375;49.136;10.366;2024-01-16T12:45:57;3.93;;;2.60;;
20431;SDS011;10375;49.136;10.366;2024-01-16T12:48:25;10.10;;;2.23;;
20431;SDS011;10375;49.136;10.366;2024-01-16T12:51:00;5.57;;;2.87;;
20431;SDS011;10375;49.136;10.366;2024-01-16T12:53:30;9.83;;;3.20;;
20431;SDS011;10375;49.136;10.366;2024-01-16T12:55:59;3.30;;;2.00;;
20431;SDS011;10375;49.136;10.366;2024-01-16T12:58:31;5.67;;;2.83;;
20431;SDS011;10375;49.136;10.366;2024-01-16T13:04:08;3.23;;;2.10;;
20431;SDS011;10375;49.136;10.366;2024-01-16T13:06:36;5.47;;;2.20;;
20431;SDS011;10375;49.136;10.366;2024-01-16T13:09:05;3.70;;;2.40;;
20431;SDS011;10375;49.136;10.366;2024-01-16T13:11:51;4.27;;;2.60;;
20431;SDS011;10375;49.136;10.366;2024-01-16T13:14:19;8.00;;;2.67;;
20431;SDS011;10375;49.136;10.366;2024-01-16T13:16:50;4.93;;;2.83;;
20431;SDS011;10375;49.136;10.366;2024-01-16T13:19:19;8.90;;;3.27;;
20431;SDS011;10375;49.136;10.366;2024-01-16T13:21:47;5.20;;;2.70;;
20431;SDS011;10375;49.136;10.366;2024-01-16T13:24:15;3.13;;;2.03;;
20431;SDS011;10375;49.136;10.366;2024-01-16T13:26:44;4.33;;;2.50;;
20431;SDS011;10375;49.136;10.366;2024-01-16T13:29:13;8.00;;;3.13;;
20431;SDS011;10375;49.136;10.366;2024-01-16T13:31:40;3.20;;;2.80;;
20431;SDS011;10375;49.136;10.366;2024-01-16T13:34:07;4.07;;;2.57;;
20431;SDS011;10375;49.136;10.366;2024-01-16T13:36:35;11.27;;;3.40;;
20431;SDS011;10375;49.136;10.366;2024-01-16T13:39:06;6.77;;;3.00;;
20431;SDS011;10375;49.136;10.366;2024-01-16T13:41:39;6.47;;;2.77;;
20431;SDS011;10375;49.136;10.366;2024-01-16T13:44:07;7.00;;;2.70;;
20431;SDS011;10375;49.136;10.366;2024-01-16T13:46:34;13.30;;;3.47;;
20431;SDS011;10375;49.136;10.366;2024-01-16T13:49:22;6.57;;;2.73;;
20431;SDS011;10375;49.136;10.366;2024-01-16T13:51:50;6.30;;;3.17;;
20431;SDS011;10375;49.136;10.366;2024-01-16T13:54:17;9.10;;;4.07;;
20431;SDS011;10375;49.136;10.366;2024-01-16T13:56:44;11.07;;;4.43;;
20431;SDS011;10375;49.136;10.366;2024-01-16T13:59:31;5.93;;;2.57;;
20431;SDS011;10375;49.136;10.366;2024-01-16T14:01:58;12.00;;;3.20;;
20431;SDS011;10375;49.136;10.366;2024-01-16T14:04:25;6.07;;;3.03;;
20431;SDS011;10375;49.136;10.366;2024-01-16T14:06:53;26.23;;;5.10;;
20431;SDS011;10375;49.136;10.366;2024-01-16T14:09:38;27.87;;;4.30;;
20431;SDS011;10375;49.136;10.366;2024-01-16T14:12:08;26.87;;;5.53;;
20431;SDS011;10375;49.136;10.366;2024-01-16T14:14:36;20.27;;;4.97;;
20431;SDS011;10375;49.136;10.366;2024-01-16T14:17:07;13.97;;;4.03;;
20431;SDS011;10375;49.136;10.366;2024-01-16T14:19:35;21.37;;;4.27;;
20431;SDS011;10375;49.136;10.366;2024-01-16T14:22:03;8.13;;;3.13;;
20431;SDS011;10375;49.136;10.366;2024-01-16T14:24:30;9.27;;;2.40;;
20431;SDS011;10375;49.136;10.366;2024-01-16T14:26:57;31.20;;;5.13;;
20431;SDS011;10375;49.136;10.366;2024-01-16T14:29:25;8.27;;;3.07;;
20431;SDS011;10375;49.136;10.366;2024-01-16T14:31:55;15.53;;;4.40;;
20431;SDS011;10375;49.136;10.366;2024-01-16T14:34:25;13.40;;;3.90;;
20431;SDS011;10375;49.136;10.366;2024-01-16T14:36:53;129.87;;;12.53;;
20431;SDS011;10375;49.136;10.366;2024-01-16T14:39:20;3.87;;;2.40;;
20431;SDS011;10375;49.136;10.366;2024-01-16T14:41:57;10.60;;;3.03;;
20431;SDS011;10375;49.136;10.366;2024-01-16T14:44:25;12.93;;;2.80;;
20431;SDS011;10375;49.136;10.366;2024-01-16T14:46:52;30.03;;;4.80;;
20431;SDS011;10375;49.136;10.366;2024-01-16T14:49:21;22.07;;;4.50;;
20431;SDS011;10375;49.136;10.366;2024-01-16T14:51:48;9.87;;;3.13;;
20431;SDS011;10375;49.136;10.366;2024-01-16T14:54:17;17.20;;;3.60;;
20431;SDS011;10375;49.136;10.366;2024-01-16T14:56:44;12.00;;;3.17;;
20431;SDS011;10375;49.136;10.366;2024-01-16T14:59:12;8.33;;;3.03;;
20431;SDS011;10375;49.136;10.366;2024-01-16T15:01:42;4.87;;;2.37;;
20431;SDS011;10375;49.136;10.366;2024-01-16T15:04:10;17.63;;;4.43;;